createdAt,value
2018-05-26T00:00:27.191Z,101718.84
2018-05-26T00:02:54.728Z,101712.38
2018-05-26T00:05:22.556Z,101717.95
2018-05-26T00:07:50.078Z,101718.80
2018-05-26T00:10:17.610Z,101714.16
2018-05-26T00:12:45.118Z,101720.13
2018-05-26T00:15:12.644Z,101721.38
2018-05-26T00:17:40.152Z,101724.49
2018-05-26T00:20:07.666Z,101720.06
2018-05-26T00:22:35.198Z,101720.64
2018-05-26T00:25:02.736Z,101717.94
2018-05-26T00:27:30.234Z,101711.05
2018-05-26T00:29:57.775Z,101710.33
2018-05-26T00:32:25.297Z,101710.99
2018-05-26T00:34:52.799Z,101709.67
2018-05-26T00:37:20.401Z,101715.45
2018-05-26T00:39:47.917Z,101710.39
2018-05-26T00:42:15.488Z,101716.55
2018-05-26T00:44:43.030Z,101720.16
2018-05-26T00:47:10.565Z,101722.45
2018-05-26T00:49:38.328Z,101721.56
2018-05-26T00:52:06.204Z,101723.64
2018-05-26T00:54:33.714Z,101722.70
2018-05-26T00:57:01.247Z,101714.25
2018-05-26T00:59:28.838Z,101717.19
2018-05-26T01:01:56.329Z,101718.48
2018-05-26T01:04:23.888Z,101715.06
2018-05-26T01:06:51.419Z,101717.61
2018-05-26T01:09:18.950Z,101711.36
2018-05-26T01:11:46.467Z,101709.47
2018-05-26T01:14:14.025Z,101700.81
2018-05-26T01:16:41.551Z,101704.27
2018-05-26T01:19:09.071Z,101708.59
2018-05-26T01:21:36.615Z,101705.26
2018-05-26T01:24:04.130Z,101703.55
2018-05-26T01:26:31.969Z,101704.62
2018-05-26T01:28:59.505Z,101717.15
2018-05-26T01:31:27.023Z,101720.11
2018-05-26T01:33:54.545Z,101720.75
2018-05-26T01:36:22.094Z,101725.27
2018-05-26T01:38:56.301Z,101721.67
2018-05-26T01:41:23.819Z,101718.88
2018-05-26T01:43:51.349Z,101714.95
2018-05-26T01:46:18.859Z,101717.25
2018-05-26T01:48:46.401Z,101709.97
2018-05-26T01:51:14.071Z,101716.63
2018-05-26T01:53:41.601Z,101715.80
2018-05-26T01:56:09.444Z,101721.99
2018-05-26T01:58:36.998Z,101718.34
2018-05-26T02:01:04.508Z,101723.28
2018-05-26T02:03:32.044Z,101731.09
2018-05-26T02:05:59.546Z,101719.98
2018-05-26T02:08:27.091Z,101724.98
2018-05-26T02:10:54.594Z,101714.29
2018-05-26T02:13:22.153Z,101714.61
2018-05-26T02:15:49.685Z,101713.08
2018-05-26T02:18:17.304Z,101709.64
2018-05-26T02:20:44.830Z,101713.70
2018-05-26T02:23:12.359Z,101715.79
2018-05-26T02:25:39.961Z,101721.03
2018-05-26T02:28:07.507Z,101723.95
2018-05-26T02:30:35.065Z,101721.23
2018-05-26T02:33:02.596Z,101724.16
2018-05-26T02:35:30.118Z,101719.50
2018-05-26T02:37:57.661Z,101718.45
2018-05-26T02:40:25.531Z,101721.58
2018-05-26T02:42:53.075Z,101720.44
2018-05-26T02:45:20.614Z,101719.50
2018-05-26T02:47:48.122Z,101715.26
2018-05-26T02:50:15.662Z,101719.62
2018-05-26T02:52:43.164Z,101715.36
2018-05-26T02:55:10.703Z,101722.95
2018-05-26T02:57:38.217Z,101725.56
2018-05-26T03:00:05.933Z,101725.98
2018-05-26T03:02:33.487Z,101726.42
2018-05-26T03:05:06.443Z,101728.19
2018-05-26T03:07:39.771Z,101728.39
2018-05-26T03:10:12.899Z,101729.75
2018-05-26T03:12:46.016Z,101734.02
2018-05-26T03:15:12.987Z,101734.34
2018-05-26T03:17:41.236Z,101737.66
2018-05-26T03:20:08.790Z,101737.38
2018-05-26T03:22:36.305Z,101737.97
2018-05-26T03:25:03.978Z,101730.58
2018-05-26T03:27:31.519Z,101736.41
2018-05-26T03:29:59.080Z,101737.34
2018-05-26T03:32:26.642Z,101733.91
2018-05-26T03:34:54.178Z,101741.09
2018-05-26T03:37:21.686Z,101746.09
2018-05-26T03:39:49.210Z,101746.19
2018-05-26T03:42:16.731Z,101744.13
2018-05-26T03:44:44.294Z,101748.06
2018-05-26T03:47:11.822Z,101743.80
2018-05-26T03:49:39.464Z,101738.20
2018-05-26T03:52:08.451Z,101740.48
2018-05-26T03:54:47.817Z,101735.06
2018-05-26T03:57:27.543Z,101739.36
2018-05-26T04:00:17.748Z,101745.30
2018-05-26T04:02:45.295Z,101746.73
2018-05-26T04:05:13.966Z,101747.48
2018-05-26T04:07:41.492Z,101753.70
2018-05-26T04:10:09.106Z,101752.37
2018-05-26T04:12:36.621Z,101760.91
2018-05-26T04:15:04.162Z,101759.32
2018-05-26T04:17:31.690Z,101758.91
2018-05-26T04:19:59.228Z,101763.60
2018-05-26T04:22:26.736Z,101768.19
2018-05-26T04:24:54.487Z,101775.88
2018-05-26T04:27:22.001Z,101772.14
2018-05-26T04:29:49.518Z,101767.86
2018-05-26T04:32:17.036Z,101780.45
2018-05-26T04:34:44.755Z,101775.66
2018-05-26T04:37:12.563Z,101773.50
2018-05-26T04:39:40.095Z,101781.62
2018-05-26T04:42:07.609Z,101785.99
2018-05-26T04:44:35.151Z,101785.99
2018-05-26T04:47:02.662Z,101778.92
2018-05-26T04:49:30.185Z,101780.45
2018-05-26T04:51:58.036Z,101785.25
2018-05-26T04:54:25.564Z,101785.87
2018-05-26T04:56:53.090Z,101784.81
2018-05-26T04:59:20.609Z,101785.45
2018-05-26T05:01:48.152Z,101790.34
2018-05-26T05:04:15.672Z,101783.59
2018-05-26T05:06:43.194Z,101796.59
2018-05-26T05:09:10.721Z,101785.87
2018-05-26T05:11:38.274Z,101797.13
2018-05-26T05:14:06.077Z,101796.90
2018-05-26T05:16:34.483Z,101808.12
2018-05-26T05:19:02.124Z,101806.77
2018-05-26T05:21:29.676Z,101811.34
2018-05-26T05:23:57.451Z,101804.23
2018-05-26T05:26:25.028Z,101811.59
2018-05-26T05:28:52.525Z,101815.88
2018-05-26T05:31:20.092Z,101815.84
2018-05-26T05:33:47.641Z,101820.50
2018-05-26T05:36:15.174Z,101819.87
2018-05-26T05:38:42.688Z,101821.58
2018-05-26T05:41:10.269Z,101821.69
2018-05-26T05:43:37.777Z,101825.51
2018-05-26T05:46:05.311Z,101822.80
2018-05-26T05:48:32.840Z,101828.19
2018-05-26T05:51:00.364Z,101832.43
2018-05-26T05:53:27.921Z,101831.49
2018-05-26T05:55:55.491Z,101827.74
2018-05-26T05:58:23.018Z,101828.86
2018-05-26T06:00:50.699Z,101824.58
2018-05-26T06:03:18.228Z,101830.31
2018-05-26T06:05:45.754Z,101829.76
2018-05-26T06:08:13.303Z,101838.34
2018-05-26T06:10:40.833Z,101838.51
2018-05-26T06:13:08.363Z,101830.79
2018-05-26T06:15:35.898Z,101835.30
2018-05-26T06:18:03.405Z,101829.03
2018-05-26T06:20:30.940Z,101829.83
2018-05-26T06:22:58.602Z,101835.14
2018-05-26T06:25:26.145Z,101835.41
2018-05-26T06:27:53.669Z,101833.86
2018-05-26T06:30:21.264Z,101835.31
2018-05-26T06:32:48.772Z,101835.22
2018-05-26T06:35:16.303Z,101831.77
2018-05-26T06:37:43.878Z,101832.34
2018-05-26T06:40:11.357Z,101835.32
2018-05-26T06:42:38.890Z,101837.66
2018-05-26T06:45:07.233Z,101837.72
2018-05-26T06:47:34.767Z,101841.64
2018-05-26T06:50:02.301Z,101837.83
2018-05-26T06:52:29.838Z,101840.20
2018-05-26T06:54:57.393Z,101837.74
2018-05-26T06:57:24.972Z,101843.72
2018-05-26T06:59:52.511Z,101839.89
2018-05-26T07:02:20.079Z,101836.77
2018-05-26T07:04:48.062Z,101840.49
2018-05-26T07:07:15.604Z,101835.35
2018-05-26T07:09:43.488Z,101834.48
2018-05-26T07:12:11.036Z,101826.89
2018-05-26T07:14:38.554Z,101825.31
2018-05-26T07:17:06.101Z,101824.25
2018-05-26T07:19:33.638Z,101824.95
2018-05-26T07:22:01.170Z,101829.13
2018-05-26T07:24:28.689Z,101818.69
2018-05-26T07:26:56.221Z,101818.50
2018-05-26T07:29:23.742Z,101820.34
2018-05-26T07:31:51.474Z,101821.80
2018-05-26T07:34:19.153Z,101819.29
2018-05-26T07:36:46.798Z,101819.20
2018-05-26T07:39:15.124Z,101815.20
2018-05-26T07:41:42.733Z,101818.27
2018-05-26T07:44:10.259Z,101818.84
2018-05-26T07:46:37.823Z,101817.16
2018-05-26T07:49:05.342Z,101814.80
2018-05-26T07:51:32.870Z,101811.97
2018-05-26T07:54:00.726Z,101810.91
2018-05-26T07:56:28.299Z,101814.13
2018-05-26T07:58:56.132Z,101812.67
2018-05-26T08:01:23.710Z,101809.73
2018-05-26T08:03:51.337Z,101813.44
2018-05-26T08:06:19.232Z,101814.72
2018-05-26T08:08:46.765Z,101824.27
2018-05-26T08:11:14.306Z,101817.91
2018-05-26T08:13:41.887Z,101815.53
2018-05-26T08:16:09.457Z,101818.19
2018-05-26T08:18:36.953Z,101819.92
2018-05-26T08:21:04.471Z,101818.98
2018-05-26T08:23:32.345Z,101817.75
2018-05-26T08:25:59.925Z,101817.06
2018-05-26T08:28:27.842Z,101814.97
2018-05-26T08:30:55.453Z,101811.88
2018-05-26T08:33:22.992Z,101815.69
2018-05-26T08:35:50.530Z,101822.30
2018-05-26T08:38:18.045Z,101819.63
2018-05-26T08:40:45.570Z,101817.64
2018-05-26T08:43:13.131Z,101820.16
2018-05-26T08:45:40.642Z,101825.23
2018-05-26T08:48:08.172Z,101819.82
2018-05-26T08:50:35.702Z,101824.14
2018-05-26T08:53:03.238Z,101826.26
2018-05-26T08:55:30.940Z,101828.34
2018-05-26T08:57:58.474Z,101834.53
2018-05-26T09:00:25.982Z,101830.16
2018-05-26T09:02:53.659Z,101834.00
2018-05-26T09:05:21.171Z,101823.43
2018-05-26T09:07:48.696Z,101824.20
2018-05-26T09:10:16.249Z,101827.09
2018-05-26T09:12:43.789Z,101818.42
2018-05-26T09:15:11.296Z,101824.15
2018-05-26T09:17:38.814Z,101822.17
2018-05-26T09:20:06.356Z,101825.32
2018-05-26T09:22:33.872Z,101824.27
2018-05-26T09:25:01.411Z,101823.39
2018-05-26T09:27:29.004Z,101818.20
2018-05-26T09:29:56.528Z,101819.00
2018-05-26T09:32:24.061Z,101822.16
2018-05-26T09:34:51.578Z,101824.03
2018-05-26T09:37:19.105Z,101823.39
2018-05-26T09:39:46.647Z,101819.59
2018-05-26T09:42:14.169Z,101814.36
2018-05-26T09:44:42.498Z,101816.66
2018-05-26T09:47:10.083Z,101820.08
2018-05-26T09:49:37.589Z,101811.02
2018-05-26T09:52:05.116Z,101810.55
2018-05-26T09:54:32.919Z,101804.08
2018-05-26T09:57:00.809Z,101800.02
2018-05-26T09:59:28.573Z,101794.17
2018-05-26T10:01:56.139Z,101789.67
2018-05-26T10:04:23.703Z,101788.38
2018-05-26T10:06:51.235Z,101788.14
2018-05-26T10:09:19.442Z,101787.06
2018-05-26T10:11:46.996Z,101794.25
2018-05-26T10:14:14.648Z,101798.42
2018-05-26T10:16:42.500Z,101788.75
2018-05-26T10:19:10.029Z,101786.91
2018-05-26T10:21:37.569Z,101781.63
2018-05-26T10:24:05.509Z,101780.53
2018-05-26T10:26:33.005Z,101783.27
2018-05-26T10:29:00.554Z,101785.14
2018-05-26T10:31:28.052Z,101787.60
2018-05-26T10:33:55.847Z,101782.80
2018-05-26T10:36:23.383Z,101788.91
2018-05-26T10:38:51.372Z,101781.09
2018-05-26T10:41:19.013Z,101786.69
2018-05-26T10:43:46.657Z,101787.94
2018-05-26T10:46:26.145Z,101782.73
2018-05-26T10:48:54.010Z,101781.70
2018-05-26T10:51:22.319Z,101780.38
2018-05-26T10:53:49.882Z,101784.59
2018-05-26T10:56:17.411Z,101782.75
2018-05-26T10:58:45.051Z,101774.95
2018-05-26T11:01:12.557Z,101773.05
2018-05-26T11:03:40.091Z,101772.00
2018-05-26T11:06:07.618Z,101768.05
2018-05-26T11:08:35.175Z,101774.77
2018-05-26T11:11:02.695Z,101769.94
2018-05-26T11:13:30.285Z,101759.80
2018-05-26T11:15:57.792Z,101772.16
2018-05-26T11:18:25.345Z,101772.19
2018-05-26T11:20:52.886Z,101766.65
2018-05-26T11:23:20.525Z,101765.58
2018-05-26T11:25:48.055Z,101771.05
2018-05-26T11:28:15.618Z,101772.28
2018-05-26T11:30:43.148Z,101760.37
2018-05-26T11:33:10.709Z,101761.76
2018-05-26T11:35:38.225Z,101768.29
2018-05-26T11:38:05.766Z,101770.38
2018-05-26T11:40:33.790Z,101754.47
2018-05-26T11:43:01.355Z,101755.29
2018-05-26T11:45:28.878Z,101754.88
2018-05-26T11:47:56.492Z,101745.23
2018-05-26T11:50:24.074Z,101751.31
2018-05-26T11:52:51.906Z,101750.47
2018-05-26T11:55:19.774Z,101750.10
2018-05-26T11:57:47.780Z,101755.98
2018-05-26T12:00:15.329Z,101740.53
2018-05-26T12:02:42.843Z,101741.78
2018-05-26T12:05:10.378Z,101739.34
2018-05-26T12:07:37.936Z,101731.08
2018-05-26T12:10:05.464Z,101732.94
2018-05-26T12:12:32.995Z,101735.47
2018-05-26T12:15:00.525Z,101727.91
2018-05-26T12:17:28.043Z,101730.84
2018-05-26T12:19:55.591Z,101732.51
2018-05-26T12:22:23.121Z,101734.98
2018-05-26T12:24:50.757Z,101731.09
2018-05-26T12:27:18.274Z,101724.67
2018-05-26T12:29:45.875Z,101723.34
2018-05-26T12:32:13.393Z,101728.05
2018-05-26T12:34:41.196Z,101722.95
2018-05-26T12:37:08.719Z,101725.74
2018-05-26T12:39:36.283Z,101722.95
2018-05-26T12:42:03.875Z,101727.39
2018-05-26T12:44:31.709Z,101724.92
2018-05-26T12:46:59.291Z,101715.50
2018-05-26T12:52:00.494Z,101716.19
2018-05-26T12:54:28.401Z,101713.88
2018-05-26T12:56:56.011Z,101710.30
2018-05-26T12:59:23.590Z,101700.19
2018-05-26T13:01:51.135Z,101704.56
2018-05-26T13:04:18.679Z,101694.47
2018-05-26T13:06:46.218Z,101696.92
2018-05-26T13:09:13.852Z,101695.62
2018-05-26T13:11:41.354Z,101695.71
2018-05-26T13:14:09.203Z,101687.17
2018-05-26T13:16:36.884Z,101695.34
2018-05-26T13:19:04.406Z,101691.99
2018-05-26T13:21:31.938Z,101698.55
2018-05-26T13:23:59.516Z,101693.09
2018-05-26T13:26:27.032Z,101692.47
2018-05-26T13:28:54.547Z,101681.07
2018-05-26T13:31:22.134Z,101683.14
2018-05-26T13:33:49.675Z,101684.52
2018-05-26T13:36:17.206Z,101682.59
2018-05-26T13:38:44.718Z,101680.99
2018-05-26T13:41:12.264Z,101674.64
2018-05-26T13:43:39.795Z,101677.69
2018-05-26T13:46:07.325Z,101678.39
2018-05-26T13:48:34.835Z,101670.87
2018-05-26T13:51:02.449Z,101665.98
2018-05-26T13:53:30.125Z,101664.91
2018-05-26T13:55:57.622Z,101666.92
2018-05-26T13:58:25.349Z,101653.20
2018-05-26T14:00:52.894Z,101658.52
2018-05-26T14:03:20.433Z,101661.48
2018-05-26T14:05:47.981Z,101657.37
2018-05-26T14:08:15.477Z,101660.98
2018-05-26T14:10:42.998Z,101660.69
2018-05-26T14:13:10.498Z,101662.98
2018-05-26T14:15:38.314Z,101665.50
2018-05-26T14:18:05.821Z,101665.33
2018-05-26T14:20:33.364Z,101672.41
2018-05-26T14:23:00.920Z,101669.47
2018-05-26T14:25:28.758Z,101675.27
2018-05-26T14:27:56.319Z,101676.73
2018-05-26T14:30:23.882Z,101679.92
2018-05-26T14:32:51.424Z,101688.20
2018-05-26T14:35:19.003Z,101685.84
2018-05-26T14:37:46.512Z,101686.09
2018-05-26T14:40:14.331Z,101694.33
2018-05-26T14:42:41.937Z,101699.77
2018-05-26T14:45:09.968Z,101701.05
2018-05-26T14:47:37.483Z,101703.79
2018-05-26T14:50:05.121Z,101699.92
2018-05-26T14:52:32.606Z,101695.98
2018-05-26T14:55:00.213Z,101699.14
2018-05-26T14:57:27.795Z,101692.13
2018-05-26T14:59:55.353Z,101690.09
2018-05-26T15:02:22.871Z,101687.34
2018-05-26T15:04:50.403Z,101684.43
2018-05-26T15:07:17.951Z,101680.36
2018-05-26T15:09:45.473Z,101679.72
2018-05-26T15:12:13.009Z,101676.86
2018-05-26T15:14:40.537Z,101670.41
2018-05-26T15:17:08.062Z,101673.56
2018-05-26T15:19:35.810Z,101667.78
2018-05-26T15:22:03.355Z,101670.56
2018-05-26T15:24:30.921Z,101666.03
2018-05-26T15:26:58.437Z,101669.86
2018-05-26T15:29:25.966Z,101670.97
2018-05-26T15:31:53.824Z,101679.48
2018-05-26T15:34:21.340Z,101675.48
2018-05-26T15:36:48.888Z,101675.08
2018-05-26T15:39:16.412Z,101677.00
2018-05-26T15:41:43.937Z,101677.95
2018-05-26T15:44:11.441Z,101670.42
2018-05-26T15:46:38.968Z,101678.11
2018-05-26T15:49:06.480Z,101675.59
2018-05-26T15:51:34.034Z,101675.58
2018-05-26T15:54:01.631Z,101679.27
2018-05-26T15:56:29.431Z,101675.33
2018-05-26T15:58:57.003Z,101670.35
2018-05-26T16:01:24.550Z,101671.20
2018-05-26T16:03:52.060Z,101668.48
2018-05-26T16:06:19.907Z,101670.31
2018-05-26T16:08:47.428Z,101672.20
2018-05-26T16:11:14.992Z,101669.97
2018-05-26T16:13:42.526Z,101667.33
2018-05-26T16:16:10.067Z,101667.34
2018-05-26T16:18:37.602Z,101666.53
2018-05-26T16:21:05.133Z,101666.20
2018-05-26T16:23:32.710Z,101666.52
2018-05-26T16:26:00.251Z,101674.55
2018-05-26T16:28:27.810Z,101671.75
2018-05-26T16:30:55.686Z,101671.66
2018-05-26T16:33:23.190Z,101669.84
2018-05-26T16:35:50.722Z,101673.75
2018-05-26T16:38:18.223Z,101669.07
2018-05-26T16:40:45.780Z,101672.09
2018-05-26T16:43:13.301Z,101670.26
2018-05-26T16:45:40.841Z,101670.91
2018-05-26T16:48:08.569Z,101668.70
2018-05-26T16:50:36.089Z,101667.37
2018-05-26T16:53:03.622Z,101669.70
2018-05-26T16:55:31.144Z,101675.70
2018-05-26T16:57:58.713Z,101677.04
2018-05-26T17:00:26.232Z,101670.61
2018-05-26T17:02:53.778Z,101669.18
2018-05-26T17:05:21.394Z,101674.33
2018-05-26T17:07:49.059Z,101667.92
2018-05-26T17:10:16.614Z,101668.14
2018-05-26T17:12:44.146Z,101667.30
2018-05-26T17:15:11.666Z,101670.91
2018-05-26T17:17:39.210Z,101674.56
2018-05-26T17:20:06.739Z,101674.39
2018-05-26T17:22:34.294Z,101678.44
2018-05-26T17:25:01.818Z,101672.40
2018-05-26T17:27:29.687Z,101672.69
2018-05-26T17:29:57.303Z,101678.56
2018-05-26T17:32:25.228Z,101677.45
2018-05-26T17:34:52.774Z,101685.30
2018-05-26T17:37:20.315Z,101686.25
2018-05-26T17:39:47.820Z,101686.98
2018-05-26T17:42:15.660Z,101687.13
2018-05-26T17:44:43.327Z,101685.73
2018-05-26T17:47:10.878Z,101687.17
2018-05-26T17:49:38.480Z,101686.05
2018-05-26T17:52:06.041Z,101691.27
2018-05-26T17:54:33.783Z,101687.11
2018-05-26T17:57:01.318Z,101691.74
2018-05-26T17:59:28.882Z,101697.57
2018-05-26T18:01:56.458Z,101691.63
2018-05-26T18:04:24.866Z,101688.73
2018-05-26T18:06:52.527Z,101694.97
2018-05-26T18:09:20.394Z,101692.18
2018-05-26T18:11:47.921Z,101694.27
2018-05-26T18:14:15.705Z,101696.42
2018-05-26T18:16:43.311Z,101696.91
2018-05-26T18:19:10.848Z,101701.41
2018-05-26T18:21:38.508Z,101706.39
2018-05-26T18:24:06.047Z,101704.95
2018-05-26T18:26:33.580Z,101709.41
2018-05-26T18:29:01.107Z,101712.61
2018-05-26T18:31:28.737Z,101714.97
2018-05-26T18:33:56.339Z,101709.17
2018-05-26T18:36:23.904Z,101712.79
2018-05-26T18:38:51.470Z,101708.21
2018-05-26T18:41:19.766Z,101709.94
2018-05-26T18:43:47.426Z,101719.58
2018-05-26T18:46:15.010Z,101716.68
2018-05-26T18:48:42.654Z,101715.73
2018-05-26T18:51:14.507Z,101719.89
2018-05-26T18:53:42.304Z,101724.25
2018-05-26T18:56:09.927Z,101724.56
2018-05-26T18:58:37.477Z,101722.90
2018-05-26T19:01:05.016Z,101730.17
2018-05-26T19:03:32.529Z,101727.03
2018-05-26T19:06:00.090Z,101733.15
2018-05-26T19:08:28.183Z,101733.53
2018-05-26T19:10:55.707Z,101744.56
2018-05-26T19:13:23.251Z,101750.28
2018-05-26T19:15:52.820Z,101751.14
2018-05-26T19:18:20.394Z,101756.16
2018-05-26T19:20:48.227Z,101757.34
2018-05-26T19:23:15.871Z,101758.66
2018-05-26T19:25:43.381Z,101759.94
2018-05-26T19:28:11.459Z,101755.84
2018-05-26T19:30:38.976Z,101766.11
2018-05-26T19:33:06.565Z,101766.84
2018-05-26T19:35:34.417Z,101775.42
2018-05-26T19:38:01.976Z,101765.35
2018-05-26T19:40:29.477Z,101775.07
2018-05-26T19:42:57.425Z,101778.34
2018-05-26T19:45:24.989Z,101767.08
2018-05-26T19:47:54.907Z,101772.91
2018-05-26T19:50:22.432Z,101763.53
2018-05-26T19:52:50.322Z,101767.28
2018-05-26T19:55:17.825Z,101768.14
2018-05-26T19:57:45.368Z,101766.52
2018-05-26T20:00:12.870Z,101767.47
2018-05-26T20:02:40.753Z,101773.06
2018-05-26T20:05:08.928Z,101769.34
2018-05-26T20:07:36.531Z,101771.42
2018-05-26T20:10:04.072Z,101769.52
2018-05-26T20:12:31.649Z,101767.09
2018-05-26T20:14:59.213Z,101758.97
2018-05-26T20:17:27.037Z,101762.96
2018-05-26T20:19:54.579Z,101765.07
2018-05-26T20:22:22.143Z,101763.41
2018-05-26T20:24:49.680Z,101759.37
2018-05-26T20:27:17.290Z,101752.23
2018-05-26T20:29:44.853Z,101755.60
2018-05-26T20:32:12.378Z,101752.15
2018-05-26T20:34:39.917Z,101745.00
2018-05-26T20:37:07.436Z,101752.92
2018-05-26T20:39:34.974Z,101749.22
2018-05-26T20:42:02.550Z,101750.22
2018-05-26T20:44:30.170Z,101753.17
2018-05-26T20:46:57.736Z,101752.64
2018-05-26T20:49:25.305Z,101755.60
2018-05-26T20:51:52.825Z,101755.30
2018-05-26T20:54:20.376Z,101755.67
2018-05-26T20:56:48.011Z,101759.69
2018-05-26T20:59:15.578Z,101757.45
2018-05-26T21:01:43.139Z,101756.39
2018-05-26T21:04:10.690Z,101758.09
2018-05-26T21:06:38.413Z,101760.83
2018-05-26T21:09:05.942Z,101765.97
2018-05-26T21:11:33.474Z,101760.45
2018-05-26T21:14:01.242Z,101759.59
2018-05-26T21:16:28.751Z,101763.37
2018-05-26T21:18:56.310Z,101766.25
2018-05-26T21:21:23.857Z,101761.63
2018-05-26T21:23:51.563Z,101768.21
2018-05-26T21:26:19.077Z,101773.28
2018-05-26T21:28:46.655Z,101777.97
2018-05-26T21:31:14.233Z,101774.91
2018-05-26T21:33:41.877Z,101774.07
2018-05-26T21:36:09.499Z,101775.96
2018-05-26T21:38:37.107Z,101769.91
2018-05-26T21:41:04.749Z,101771.39
2018-05-26T21:43:32.305Z,101772.67
2018-05-26T21:45:59.855Z,101763.27
2018-05-26T21:48:28.510Z,101765.42
2018-05-26T21:50:56.125Z,101761.38
2018-05-26T21:53:23.664Z,101764.70
2018-05-26T21:55:51.520Z,101763.69
2018-05-26T21:58:19.284Z,101769.13
2018-05-26T22:00:46.805Z,101770.02
2018-05-26T22:03:14.305Z,101773.31
2018-05-26T22:05:41.876Z,101767.14
2018-05-26T22:08:09.401Z,101762.72
2018-05-26T22:10:36.928Z,101760.53
2018-05-26T22:13:04.482Z,101759.69
2018-05-26T22:15:32.041Z,101758.74
2018-05-26T22:17:59.560Z,101754.59
2018-05-26T22:20:27.103Z,101761.19
2018-05-26T22:22:54.611Z,101763.19
2018-05-26T22:25:22.167Z,101763.30
2018-05-26T22:27:49.673Z,101759.09
2018-05-26T22:30:17.201Z,101758.91
2018-05-26T22:32:44.711Z,101755.56
2018-05-26T22:35:12.592Z,101748.08
2018-05-26T22:37:40.117Z,101750.23
2018-05-26T22:40:07.920Z,101751.84
2018-05-26T22:42:36.357Z,101753.01
2018-05-26T22:45:03.886Z,101761.77
2018-05-26T22:47:31.728Z,101757.39
2018-05-26T22:49:59.491Z,101759.05
2018-05-26T22:52:27.006Z,101760.97
2018-05-26T22:54:54.532Z,101755.34
2018-05-26T22:57:22.050Z,101766.16
2018-05-26T22:59:49.595Z,101760.95
2018-05-26T23:02:17.141Z,101763.81
2018-05-26T23:04:44.907Z,101765.95
2018-05-26T23:07:12.482Z,101756.77
2018-05-26T23:09:39.981Z,101758.08
2018-05-26T23:12:07.504Z,101760.62
2018-05-26T23:14:35.014Z,101759.52
2018-05-26T23:17:02.572Z,101759.98
2018-05-26T23:19:30.101Z,101758.41
2018-05-26T23:21:57.633Z,101758.27
2018-05-26T23:24:25.151Z,101761.95
2018-05-26T23:26:52.707Z,101754.09
2018-05-26T23:29:20.219Z,101756.25
2018-05-26T23:31:47.754Z,101750.81
2018-05-26T23:34:15.284Z,101754.55
2018-05-26T23:36:42.802Z,101750.00
2018-05-26T23:39:10.609Z,101743.83
2018-05-26T23:41:38.215Z,101750.59
2018-05-26T23:44:05.732Z,101746.81
2018-05-26T23:46:33.276Z,101743.52
2018-05-26T23:49:00.793Z,101742.69
2018-05-26T23:51:28.318Z,101744.81
2018-05-26T23:53:56.174Z,101748.49
2018-05-26T23:56:23.681Z,101751.73
2018-05-26T23:58:51.179Z,101749.66
